sim
Sign-in with your pilot id or email,
or register
Callsign
Passwort

Schedule Details

Flight Number: RYR5714 (4)
Departure: Weeze Airport (EDLV) at 16:10
Arrival: Thessaloniki International Airport (LGTS) at 18:55
Route: Ryanair Passenger Schedule. Enter filed route here before submitting Pirep.

Weather Information
Getting current METAR information for EDLV 211720Z VRB03KT CAVOK 21/09 Q1026
Getting current METAR information for LGTS 211720Z 17006KT CAVOK 30/12 Q1016 NOSIG

Schedule Frequency

Route Map